Latest Weather Observations for Bendigo

IDV60801

Issued at 11:32 pm EST Friday 26 August 2016 (issued every 30 minutes, with the page automatically refreshed every 10 minutes)

About weather observations | Map of weather stations | Latest weather observations for VIC | Other Formats
Station Details ID: 081123 Name: BENDIGO AIRPORT Lat: -36.74 Lon: 144.33 Height: 208.0 m
Data from the previous 72 hours. | See also: Recent months at Bendigo
Date/Time
EST
Temp
°C
App
Temp
°C
Dew
Point
°C
Rel
Hum
%
Delta-T
°C
Wind Press
QNH
hPa
Press
MSL
hPa
Rain since
9am
mm
Dir  Spd
km/h
Gust
km/h
Spd
kts
Gust
kts
26/11:30pm 7.3 6.0 4.3 81 1.3 CALM 0 0 0 0 1023.1 1023.5 0.0
26/11:00pm 7.9 6.2 3.8 75 1.8 NNW 2 6 1 3 1023.1 1023.5 0.0
26/10:30pm 7.9 5.8 3.9 76 1.7 WNW 4 9 2 5 1023.1 1023.5 0.0
26/10:00pm 8.7 6.0 2.7 66 2.6 N 6 7 3 4 1022.8 1023.2 0.0
26/09:30pm 8.9 6.9 2.3 63 2.8 NNW 2 7 1 4 1022.9 1023.3 0.0
26/09:00pm 8.8 7.2 2.2 63 2.8 CALM 0 0 0 0 1022.9 1023.3 0.0
26/08:30pm 9.7 7.1 0.9 54 3.6 WSW 4 7 2 4 1022.7 1023.1 0.0
26/08:00pm 9.3 6.3 1.0 56 3.4 SW 6 7 3 4 1022.8 1023.2 0.0
26/07:30pm 9.1 6.6 1.5 59 3.2 SSW 4 9 2 5 1022.5 1022.9 0.0
26/07:00pm 9.3 6.3 1.7 59 3.2 SSW 7 11 4 6 1022.3 1022.6 0.0
26/06:30pm 9.6 6.5 1.5 57 3.4 SSW 7 13 4 7 1022.2 1022.5 0.0
26/06:00pm 9.6 6.3 2.5 61 3.0 SSW 9 13 5 7 1021.7 1022.1 0.0
26/05:30pm 10.1 6.0 2.2 58 3.4 SW 13 20 7 11 1021.2 1021.6 0.0
26/05:00pm 10.5 6.8 2.6 58 3.4 WSW 11 20 6 11 1021.1 1021.5 0.0
26/04:30pm 11.0 7.8 2.8 57 3.6 SW 9 13 5 7 1021.1 1021.5 0.0
26/04:00pm 10.9 6.6 3.0 58 3.5 WSW 15 20 8 11 1021.0 1021.4 0.0
26/03:30pm 11.5 7.2 3.3 57 3.6 W 15 22 8 12 1020.9 1021.3 0.0
26/03:00pm 11.3 7.2 2.1 53 4.0 WSW 13 20 7 11 1020.7 1021.1 0.0
26/02:30pm 11.5 6.4 3.3 57 3.6 WSW 19 24 10 13 1020.8 1021.2 0.0
26/02:00pm 12.3 7.6 3.3 54 4.0 WSW 17 22 9 12 1020.9 1021.3 0.0
26/01:30pm 11.9 6.9 1.3 48 4.5 W 17 22 9 12 1021.2 1021.6 0.0
26/01:00pm 11.1 6.5 1.4 51 4.1 SW 15 20 8 11 1021.6 1022.0 0.0
26/12:30pm 12.0 7.2 2.5 52 4.2 W 17 24 9 13 1021.9 1022.2 0.0
26/12:00pm 10.9 6.3 1.4 52 4.0 WSW 15 24 8 13 1022.4 1022.8 0.0
26/11:30am 9.8 5.7 2.2 59 3.2 WSW 13 20 7 11 1022.6 1023.0 0.0
26/11:00am 10.1 5.7 2.7 60 3.2 W 15 22 8 12 1022.7 1023.1 0.0
26/10:30am 10.1 6.5 2.9 61 3.1 WSW 11 17 6 9 1022.7 1023.1 0.0
26/10:00am 9.8 6.4 4.0 67 2.6 WSW 11 17 6 9 1022.7 1023.1 0.0
26/09:30am 9.5 6.1 4.1 69 2.4 SW 11 15 6 8 1022.7 1023.1 0.0
26/09:00am 9.1 5.9 4.9 75 1.9 SW 11 17 6 9 1022.6 1023.0 0.2
26/08:30am 8.3 5.6 5.4 82 1.3 SW 9 15 5 8 1022.3 1022.6 0.2
26/08:00am 6.5 5.4 5.0 90 0.7 CALM 0 0 0 0 1022.4 1022.8 0.2
26/07:30am 5.0 2.9 4.0 93 0.4 NW 4 9 2 5 1022.3 1022.6 0.2
26/07:00am 4.0 2.1 2.7 91 0.5 WSW 2 9 1 5 1021.9 1022.2 0.0
26/06:30am 5.1 2.4 3.8 91 0.6 WSW 7 11 4 6 1021.4 1021.8 0.0
26/06:00am 4.3 1.2 3.4 94 0.4 SW 9 13 5 7 1021.2 1021.6 0.0
26/05:30am 2.0 -0.2 1.0 93 0.4 SW 2 6 1 3 1020.9 1021.3 0.0
26/05:00am 2.1 -0.8 1.4 95 0.3 SW 6 9 3 5 1020.4 1020.8 0.0
26/04:30am 3.5 0.7 2.9 96 0.2 SW 7 9 4 5 1020.2 1020.6 0.0
26/04:00am 1.8 -1.1 1.2 96 0.2 SW 6 7 3 4 1020.1 1020.5 0.0
26/03:30am 1.1 -1.2 0.7 97 0.2 SW 2 7 1 4 1020.0 1020.4 0.0
26/03:00am 1.5 -0.3 0.9 96 0.2 CALM 0 0 0 0 1019.9 1020.3 0.0
26/02:30am 0.9 -1.0 0.3 96 0.2 CALM 0 0 0 0 1019.9 1020.3 0.0
26/02:26am 1.4 -0.5 0.8 96 0.2 CALM 0 0 0 0 1019.9 1020.3 0.0
26/02:05am 1.0 -0.9 0.4 96 0.2 CALM 0 0 0 0 1020.0 1020.4 0.0
26/02:00am 1.0 -0.9 0.4 96 0.2 CALM 0 0 0 0 1020.0 1020.4 0.0
26/01:30am 1.6 -0.2 0.9 95 0.3 CALM 0 0 0 0 1020.0 1020.4 0.0
26/01:00am 1.8 0.0 1.1 95 0.3 CALM 0 0 0 0 1019.9 1020.3 0.0
26/12:30am 2.1 0.3 1.4 95 0.3 CALM 0 0 0 0 1019.9 1020.3 0.0
26/12:00am 1.7 -0.2 0.7 93 0.4 CALM 0 0 0 0 1019.9 1020.3 0.0
 
Date/Time
EST
Temp
°C
App
Temp
°C
Dew
Point
°C
Rel
Hum
%
Delta-T
°C
Wind Press
QNH
hPa
Press
MSL
hPa
Rain since
9am
mm
Dir  Spd
km/h
Gust
km/h
Spd
kts
Gust
kts
25/11:30pm 2.9 1.2 1.9 93 0.4 CALM 0 0 0 0 1019.8 1020.2 0.0
25/11:00pm 2.9 1.2 1.6 91 0.5 CALM 0 0 0 0 1019.6 1020.0 0.0
25/10:30pm 4.1 2.5 2.3 88 0.7 CALM 0 0 0 0 1019.4 1019.8 0.0
25/10:00pm 6.5 4.0 3.7 82 1.2 SW 6 11 3 6 1019.3 1019.7 0.0
25/09:30pm 5.7 2.9 3.2 84 1.1 SW 7 13 4 7 1019.2 1019.6 0.0
25/09:00pm 5.3 2.4 2.5 82 1.1 SW 7 9 4 5 1018.9 1019.3 0.0
25/08:30pm 6.1 3.9 3.1 81 1.3 SSW 4 11 2 6 1018.7 1019.1 0.0
25/08:00pm 6.3 3.5 3.1 80 1.3 SW 7 9 4 5 1018.4 1018.8 0.0
25/07:30pm 7.0 4.2 3.4 78 1.5 SW 7 9 4 5 1018.0 1018.3 0.0
25/07:00pm 8.8 5.5 4.4 74 2.0 SSW 11 17 6 9 1017.7 1018.0 0.0
25/06:30pm 9.5 5.3 3.7 67 2.6 SW 15 22 8 12 1017.2 1017.5 0.0
25/06:00pm 10.6 5.9 3.4 61 3.2 WSW 17 26 9 14 1016.9 1017.2 0.0
25/05:30pm 10.7 6.4 3.5 61 3.2 WSW 15 20 8 11 1016.4 1016.8 0.0
25/05:00pm 11.5 6.5 3.5 58 3.6 SW 19 28 10 15 1015.9 1016.3 0.0
25/04:30pm 11.6 6.4 3.6 58 3.6 WSW 20 32 11 17 1015.6 1016.0 0.0
25/04:00pm 12.4 7.8 3.6 55 4.0 SW 17 28 9 15 1015.3 1015.7 0.0
25/03:30pm 12.7 7.7 4.4 57 3.8 SW 20 32 11 17 1015.3 1015.7 0.0
25/03:00pm 11.5 6.1 2.3 53 4.0 SW 20 30 11 16 1015.3 1015.7 0.0
25/02:30pm 13.0 8.2 2.8 50 4.5 SSW 17 28 9 15 1015.0 1015.4 0.0
25/02:00pm 12.4 6.5 1.7 48 4.6 WSW 22 32 12 17 1014.9 1015.3 0.0
25/01:30pm 11.5 6.2 2.0 52 4.1 WSW 19 28 10 15 1014.9 1015.3 0.0
25/01:00pm 10.9 5.3 1.4 52 4.0 SSW 20 28 11 15 1015.2 1015.6 0.0
25/12:30pm 11.7 6.5 3.5 57 3.7 SW 20 30 11 16 1015.3 1015.7 0.0
25/12:00pm 10.4 4.0 3.2 61 3.2 SW 26 39 14 21 1015.5 1015.9 0.0
25/11:30am 10.6 5.8 2.7 58 3.4 SSW 17 30 9 16 1015.6 1016.0 0.0
25/11:00am 9.5 4.4 3.0 64 2.8 SW 19 32 10 17 1015.7 1016.1 0.0
25/10:30am 9.7 5.2 4.3 69 2.4 SW 17 28 9 15 1015.6 1016.0 0.0
25/10:00am 9.1 5.0 4.5 73 2.1 SSW 15 20 8 11 1015.6 1016.0 0.0
25/09:30am 8.7 4.6 4.3 74 2.0 SW 15 24 8 13 1015.4 1015.8 0.0
25/09:00am 7.8 4.4 4.2 78 1.6 WSW 11 17 6 9 1015.3 1015.7 0.0
25/08:30am 7.2 4.7 4.9 85 1.0 SSW 7 11 4 6 1015.1 1015.5 0.0
25/08:00am 6.1 3.2 4.6 90 0.7 SSW 9 13 5 7 1014.8 1015.2 0.0
25/07:30am 4.8 1.7 3.6 92 0.5 SW 9 15 5 8 1014.6 1015.0 0.0
25/07:00am 4.3 0.3 3.0 91 0.5 SW 13 17 7 9 1014.3 1014.7 0.0
25/06:43am 4.6 1.1 3.3 91 0.5 SW 11 17 6 9 1014.1 1014.4 0.0
25/06:30am 5.3 1.4 3.5 88 0.8 SW 13 19 7 10 1014.0 1014.3 0.0
25/06:08am 5.5 0.9 3.8 89 0.7 SW 17 26 9 14 1013.9 1014.2 0.0
25/06:00am 5.2 0.9 3.5 89 0.7 SW 15 24 8 13 1013.8 1014.1 0.0
25/05:30am 4.5 1.3 3.3 92 0.5 SW 9 17 5 9 1013.6 1013.9 0.0
25/05:00am 4.2 1.4 3.2 93 0.4 WSW 7 13 4 7 1013.4 1013.7 0.0
25/04:30am 2.6 0.8 1.3 91 0.5 CALM 0 0 0 0 1013.1 1013.4 0.0
25/04:00am 3.2 1.5 1.6 89 0.6 CALM 0 0 0 0 1013.1 1013.4 0.0
25/03:30am 3.3 0.3 1.8 90 0.6 SSW 7 9 4 5 1013.1 1013.4 0.0
25/03:00am 2.9 0.0 1.4 90 0.6 SSW 6 7 3 4 1013.1 1013.4 0.0
25/02:30am 3.5 -0.3 1.9 89 0.6 SSW 11 13 6 7 1013.2 1013.5 0.0
25/02:00am 4.3 1.5 3.0 91 0.5 SW 7 11 4 6 1013.5 1013.8 0.0
25/01:30am 4.6 1.9 2.9 89 0.7 SSW 6 9 3 5 1013.5 1013.8 0.0
25/01:00am 4.4 1.5 2.8 89 0.7 SW 7 11 4 6 1013.5 1013.8 0.0
25/12:30am 6.1 3.4 3.8 85 1.0 SW 7 9 4 5 1013.6 1013.9 0.0
25/12:00am 7.3 4.0 4.6 83 1.2 SW 11 19 6 10 1013.7 1014.0 0.0
 
Date/Time
EST
Temp
°C
App
Temp
°C
Dew
Point
°C
Rel
Hum
%
Delta-T
°C
Wind Press
QNH
hPa
Press
MSL
hPa
Rain since
9am
mm
Dir  Spd
km/h
Gust
km/h
Spd
kts
Gust
kts
24/11:30pm 7.1 3.4 4.4 83 1.2 SW 13 20 7 11 1013.7 1014.0 0.0
24/11:00pm 5.8 3.1 3.6 86 0.9 SSW 7 11 4 6 1013.6 1013.9 0.0
24/10:30pm 6.6 3.2 3.8 82 1.2 SSW 11 17 6 9 1013.5 1013.8 0.0
24/10:00pm 7.2 3.0 3.8 79 1.5 S 15 20 8 11 1013.4 1013.7 0.0
24/09:30pm 7.4 3.7 4.4 81 1.3 S 13 19 7 10 1013.3 1013.6 0.0
24/09:00pm 6.9 3.5 3.9 81 1.3 S 11 15 6 8 1013.4 1013.7 0.0
24/08:30pm 7.1 3.7 3.9 80 1.4 S 11 13 6 7 1013.4 1013.7 0.0
24/08:00pm 7.4 4.0 3.8 78 1.6 S 11 15 6 8 1013.3 1013.6 0.0
24/07:30pm 8.8 4.9 3.6 70 2.3 S 13 17 7 9 1013.1 1013.4 0.0
24/07:00pm 9.1 5.9 3.1 66 2.6 S 9 13 5 7 1012.9 1013.2 0.0
24/06:30pm 9.1 6.4 2.7 64 2.7 S 6 7 3 4 1012.5 1012.8 0.0
24/06:00pm 10.4 7.1 2.7 59 3.3 S 9 13 5 7 1012.2 1012.5 0.0
24/05:30pm 11.2 6.9 3.0 57 3.6 S 15 19 8 10 1012.0 1012.3 0.0
24/05:00pm 11.8 7.3 2.3 52 4.1 SSE 15 20 8 11 1011.7 1012.1 0.0
24/04:30pm 11.4 7.4 2.7 55 3.8 S 13 19 7 10 1011.7 1012.1 0.0
24/04:00pm 11.9 7.9 2.9 54 4.0 S 13 20 7 11 1011.9 1012.2 0.0
24/03:30pm 12.7 7.8 2.0 48 4.7 SSE 17 26 9 14 1011.9 1012.2 0.0
24/03:00pm 13.3 8.4 4.2 54 4.2 SSE 19 26 10 14 1011.9 1012.2 0.0
24/02:30pm 12.6 8.5 4.6 58 3.7 SSE 15 22 8 12 1012.0 1012.3 0.0
24/02:00pm 12.3 8.2 2.5 51 4.3 SSE 13 20 7 11 1012.4 1012.7 0.0
24/01:30pm 12.3 8.8 3.3 54 4.0 S 11 19 6 10 1012.7 1013.0 0.0
24/01:00pm 12.6 8.0 3.8 55 4.0 SSE 17 24 9 13 1013.1 1013.4 0.0
24/12:30pm 12.2 7.8 2.6 52 4.2 SE 15 24 8 13 1013.4 1013.7 0.0
24/12:00pm 11.7 7.6 4.2 60 3.4 SSE 15 22 8 12 1013.7 1014.0 0.0
24/11:30am 11.1 7.3 4.1 62 3.2 SSE 13 22 7 12 1014.1 1014.4 0.0
24/11:00am 10.4 6.7 4.3 66 2.7 SSE 13 19 7 10 1014.3 1014.7 0.0
24/10:30am 9.8 5.6 3.8 66 2.7 S 15 20 8 11 1014.6 1015.0 0.0
24/10:00am 9.0 5.0 4.8 75 1.9 SSE 15 22 8 12 1014.7 1015.1 0.0
24/09:30am 8.3 3.9 4.5 77 1.7 S 17 22 9 12 1014.9 1015.3 0.0
24/09:00am 7.2 3.4 4.0 80 1.4 SSE 13 17 7 9 1015.2 1015.6 0.2
24/08:30am 6.3 2.4 3.6 83 1.2 SSE 13 20 7 11 1015.3 1015.7 0.2
24/08:00am 4.7 1.1 3.2 90 0.6 SSE 11 13 6 7 1015.4 1015.8 0.2
24/07:30am 3.5 0.2 2.2 91 0.5 SSE 9 9 5 5 1015.4 1015.8 0.2
24/07:00am 3.3 -0.5 2.0 91 0.5 SSE 11 13 6 7 1015.1 1015.5 0.2
24/06:30am 3.7 0.0 2.2 90 0.6 SSE 11 13 6 7 1015.0 1015.4 0.2
24/06:00am 3.3 -0.5 2.0 91 0.5 SSE 11 13 6 7 1015.0 1015.4 0.0
24/05:30am 3.7 -0.4 2.1 89 0.6 SSE 13 15 7 8 1015.0 1015.4 0.0
24/05:00am 4.0 -0.1 2.2 88 0.7 SSE 13 17 7 9 1014.8 1015.2 0.0
24/04:30am 4.1 -0.4 2.3 88 0.7 SSE 15 19 8 10 1014.9 1015.3 0.0
24/04:00am 4.0 -0.4 2.5 90 0.6 SSE 15 19 8 10 1014.7 1015.1 0.0
24/03:30am 3.9 -0.6 2.4 90 0.6 SSE 15 19 8 10 1014.9 1015.3 0.0
24/03:00am 4.3 -0.1 2.7 89 0.7 SSE 15 19 8 10 1015.2 1015.6 0.0
24/02:30am 4.6 0.2 2.8 88 0.7 SSE 15 20 8 11 1015.5 1015.9 0.0
24/02:00am 4.5 -0.3 2.7 88 0.7 SSE 17 20 9 11 1015.7 1016.1 0.0
24/01:30am 4.7 -0.1 2.7 87 0.8 SSE 17 19 9 10 1015.8 1016.2 0.0
24/01:00am 4.2 -0.3 2.2 87 0.8 SSE 15 17 8 9 1016.0 1016.4 0.0
24/12:30am 4.4 -0.1 2.4 87 0.8 SSE 15 19 8 10 1016.2 1016.6 0.0
24/12:00am 4.3 -0.2 2.3 87 0.8 SSE 15 17 8 9 1016.5 1016.9 0.0

Other Formats:

Comma delimited format used in spreadsheet applications
http://www.bom.gov.au/fwo/IDV60801/IDV60801.94855.axf

JavaScript Object Notation format (JSON) in row-major order
http://www.bom.gov.au/fwo/IDV60801/IDV60801.94855.json